LIMLLIRI

Guest
Details From LIML - Milano Linate
To LIRI - Pontecagnano
Flight Number -
Tags generated
Created
Modified
Stats Distance 382 nm / 708 km
Max Altitude 0 ft / 0 m
Waypoints 9
Social Downloads 3
Likes 0
Share VATSIM

Download

Looking for another format? Having issues loading an existing format? Contact us
Advertisement - Login to hide

Notes

None

Route

LIML LUPOS UL995 FRZ UZ910 ERIKA LIRI

ID Type Via Altitude Latitude Longitude Leg Dist Tot Dist Heading (true) Name
O LIML APT - 0 ft / 0 m 45.45030˚ 9.27280˚ - 0 nm - Milano Linate
LUPOS FIX - 0 ft / 0 m 44.50472˚ 10.58139˚ 79 nm 79 nm 135° / 136° -
FRZ VOR UL995 (AWY-HI) 0 ft / 0 m 44.02718˚ 11.00331˚ 33 nm 113 nm 148° / 148° FIRENZE VORTAC
IXUSI FIX UZ910 (AWY-HI) 0 ft / 0 m 43.43861˚ 11.73083˚ 47 nm 160 nm 138° / 138° -
VERUN FIX UZ910 (AWY-HI) 0 ft / 0 m 43.28139˚ 11.92139˚ 12 nm 173 nm 139° / 139° -
NIKMA FIX UZ910 (AWY-HI) 0 ft / 0 m 43.06639˚ 12.18028˚ 17 nm 190 nm 139° / 139° -
VELIM FIX UZ910 (AWY-HI) 0 ft / 0 m 42.14222˚ 13.26528˚ 73 nm 263 nm 139° / 140° -
ERIKA FIX UZ910 (AWY-HI) 0 ft / 0 m 41.62278˚ 14.03111˚ 46 nm 310 nm 132° / 133° -
O LIRI APT - 0 ft / 0 m 40.61869˚ 14.91054˚ 72 nm 382 nm 146° / 147° Pontecagnano

Altitude Profile

Advertisement - Login to hide

Weather


0- 5 10 15 20 25 30 35+ Temperature / ° C

Clouds and Precipitation
Forecast for 2017-12-14 12:00 UTC. Updated an hour ago

Ground ~20,000 ft ~40,000 ft Winds

LIML

Details ICAO LIML (LIN)
Name Milano Linate
Region Italy
Timezone Europe/Rome (UTC+1.0)
Stats Elevation 353 ft / 108 m (AMSL)
Location 45.450302° 9.272801°
Runways 2
Magnetic Variation 2.500° E

METAR

LIML 140750Z 22004KT 9999 BKN035 03/02 Q1009 NOSIG

Decode

TAF

TAF LIML 140500Z 1406/1506 VRB05KT 6000 SCT050 TEMPO 1406/1408 0600 BCFG BKN010

Decode

Departure Runways

ID Width Length Bearing (true) Bearing (mag) Surface Threshold Offset Overrun Length
17 72 ft / 22 m 1,975 ft / 602 m 175.64° 173.14° Asphalt 200 ft / 61 m 0 ft / 0 m
18 197 ft / 60 m 8,017 ft / 2,443 m 175.67° 173.17° Asphalt 0 ft / 0 m 190 ft / 58 m
35 72 ft / 22 m 1,975 ft / 602 m 355.64° 353.14° Asphalt 200 ft / 61 m 0 ft / 0 m
36 197 ft / 60 m 8,017 ft / 2,443 m 355.68° 353.18° Asphalt 0 ft / 0 m 980 ft / 299 m

LIRI

Details ICAO LIRI (QSR)
Name Pontecagnano
Region Italy
Timezone Europe/Rome (UTC+1.0)
Stats Elevation 131 ft / 40 m (AMSL)
Location 40.618691° 14.910538°
Runways 1
Magnetic Variation 3.396° E

METAR

LIRI 140810Z 04003KT 9999 SCT025 BKN040 11/10 Q1018

Decode

TAF

Not found

Destination Runways

ID Width Length Bearing (true) Bearing (mag) Surface Threshold Offset Overrun Length
05 148 ft / 45 m 5,259 ft / 1,603 m 52.06° 48.66° Asphalt 0 ft / 0 m 0 ft / 0 m
23 148 ft / 45 m 5,259 ft / 1,603 m 232.07° 228.67° Asphalt 512 ft / 156 m 0 ft / 0 m

Popular Alternatives